createdAt,value
2022-08-08T00:00:54.388Z,43.88
2022-08-08T00:03:19.993Z,43.94
2022-08-08T00:06:11.926Z,44.04
2022-08-08T00:08:49.001Z,44.15
2022-08-08T00:11:22.172Z,44.18
2022-08-08T00:14:15.251Z,44.37
2022-08-08T00:16:58.807Z,44.37
2022-08-08T00:19:59.329Z,44.45
2022-08-08T00:22:29.428Z,44.52
2022-08-08T00:25:00.694Z,44.64
2022-08-08T00:27:34.910Z,44.72
2022-08-08T00:30:07.712Z,44.70
2022-08-08T00:32:52.171Z,44.86
2022-08-08T00:35:56.424Z,44.97
2022-08-08T00:38:51.658Z,45.00
2022-08-08T00:41:55.230Z,45.09
2022-08-08T00:44:27.477Z,45.30
2022-08-08T00:47:14.279Z,45.34
2022-08-08T00:50:34.490Z,45.53
2022-08-08T00:53:04.304Z,45.57
2022-08-08T00:55:52.858Z,45.87
2022-08-08T00:58:43.723Z,45.90
2022-08-08T01:01:38.323Z,45.96
2022-08-08T01:04:30.548Z,46.13
2022-08-08T01:07:34.695Z,46.16
2022-08-08T01:10:34.025Z,46.34
2022-08-08T01:13:43.896Z,46.50
2022-08-08T01:16:27.859Z,46.47
2022-08-08T01:19:42.175Z,46.56
2022-08-08T01:22:36.956Z,46.56
2022-08-08T01:25:16.945Z,46.54
2022-08-08T01:28:00.233Z,46.79
2022-08-08T01:30:59.681Z,46.90
2022-08-08T01:34:00.690Z,47.07
2022-08-08T01:37:06.177Z,46.97
2022-08-08T01:40:14.602Z,47.18
2022-08-08T01:42:53.936Z,47.31
2022-08-08T01:45:30.098Z,47.28
2022-08-08T01:48:16.281Z,47.37
2022-08-08T01:50:52.460Z,47.58
2022-08-08T01:55:14.951Z,47.49
2022-08-08T01:57:07.354Z,47.61
2022-08-08T02:00:02.152Z,47.66
2022-08-08T02:02:50.703Z,47.81
2022-08-08T02:05:59.404Z,47.87
2022-08-08T02:08:34.880Z,47.94
2022-08-08T02:11:23.752Z,48.09
2022-08-08T02:14:05.467Z,48.16
2022-08-08T02:16:35.353Z,48.20
2022-08-08T02:19:50.530Z,48.13
2022-08-08T02:22:31.889Z,48.02
2022-08-08T02:25:00.975Z,48.23
2022-08-08T02:28:04.920Z,48.44
2022-08-08T02:30:58.201Z,48.45
2022-08-08T02:34:08.580Z,48.43
2022-08-08T02:36:43.073Z,48.69
2022-08-08T02:39:40.321Z,48.82
2022-08-08T02:42:14.688Z,48.84
2022-08-08T02:44:57.298Z,48.89
2022-08-08T02:47:51.920Z,49.03
2022-08-08T02:50:40.727Z,49.32
2022-08-08T02:53:32.149Z,49.15
2022-08-08T02:56:27.360Z,49.48
2022-08-08T02:59:58.455Z,49.52
2022-08-08T03:03:08.471Z,49.54
2022-08-08T03:05:59.997Z,49.55
2022-08-08T03:08:52.170Z,49.69
2022-08-08T03:12:13.856Z,49.65
2022-08-08T03:16:02.468Z,49.91
2022-08-08T03:18:49.248Z,50.04
2022-08-08T03:21:19.197Z,50.14
2022-08-08T03:24:00.029Z,50.34
2022-08-08T03:26:31.028Z,50.29
2022-08-08T03:29:00.499Z,50.50
2022-08-08T03:32:07.093Z,50.42
2022-08-08T03:34:39.752Z,50.49
2022-08-08T03:37:20.018Z,50.82
2022-08-08T03:40:02.084Z,50.98
2022-08-08T03:42:31.212Z,50.98
2022-08-08T03:44:58.811Z,50.98
2022-08-08T03:47:39.402Z,50.84
2022-08-08T03:50:19.668Z,50.89
2022-08-08T03:52:47.264Z,50.86
2022-08-08T03:55:56.344Z,50.97
2022-08-08T03:58:32.222Z,50.99
2022-08-08T04:01:01.866Z,51.01
2022-08-08T04:03:59.943Z,51.08
2022-08-08T04:06:29.533Z,51.07
2022-08-08T04:08:58.137Z,51.07
2022-08-08T04:11:48.105Z,51.24
2022-08-08T04:14:33.881Z,51.29
2022-08-08T04:17:02.607Z,51.18
2022-08-08T04:19:36.730Z,51.17
2022-08-08T04:22:04.644Z,51.12
2022-08-08T04:24:31.980Z,51.04
2022-08-08T04:26:59.615Z,51.11
2022-08-08T04:29:27.479Z,51.18
2022-08-08T04:32:10.710Z,51.02
2022-08-08T04:34:49.634Z,51.20
2022-08-08T04:37:31.915Z,50.98
2022-08-08T04:40:07.161Z,51.01
2022-08-08T04:42:36.961Z,50.94
2022-08-08T04:45:05.705Z,50.90
2022-08-08T04:47:36.749Z,50.87
2022-08-08T04:50:14.394Z,50.82
2022-08-08T04:53:01.123Z,50.74
2022-08-08T04:55:47.677Z,50.58
2022-08-08T04:58:20.142Z,50.58
2022-08-08T05:00:50.096Z,50.44
2022-08-08T05:04:08.440Z,50.38
2022-08-08T05:06:13.032Z,50.23
2022-08-08T05:08:45.619Z,50.17
2022-08-08T05:11:23.712Z,49.98
2022-08-08T05:13:57.872Z,49.85
2022-08-08T05:16:52.552Z,49.66
2022-08-08T05:20:11.095Z,49.45
2022-08-08T05:22:02.136Z,49.35
2022-08-08T05:24:30.872Z,49.14
2022-08-08T05:26:58.363Z,49.18
2022-08-08T05:29:27.080Z,49.02
2022-08-08T05:32:03.689Z,48.85
2022-08-08T05:34:46.735Z,48.77
2022-08-08T05:37:19.509Z,48.75
2022-08-08T05:39:49.879Z,48.65
2022-08-08T05:42:19.369Z,48.36
2022-08-08T05:44:51.617Z,48.15
2022-08-08T05:47:21.507Z,47.93
2022-08-08T05:49:55.915Z,47.88
2022-08-08T05:52:31.706Z,47.40
2022-08-08T05:55:14.105Z,47.43
2022-08-08T05:58:05.626Z,47.24
2022-08-08T06:00:34.054Z,46.72
2022-08-08T06:03:17.535Z,46.57
2022-08-08T06:05:59.568Z,46.27
2022-08-08T06:08:38.252Z,45.99
2022-08-08T06:11:05.606Z,45.82
2022-08-08T06:13:36.181Z,45.97
2022-08-08T06:16:14.862Z,45.50
2022-08-08T06:18:42.893Z,45.32
2022-08-08T06:21:28.601Z,45.25
2022-08-08T06:24:05.183Z,44.91
2022-08-08T06:26:50.324Z,43.69
2022-08-08T06:30:00.166Z,44.07
2022-08-08T06:32:18.484Z,44.07
2022-08-08T06:34:52.520Z,43.65
2022-08-08T06:37:25.617Z,43.68
2022-08-08T06:39:56.554Z,43.56
2022-08-08T06:42:26.353Z,43.21
2022-08-08T06:44:55.892Z,42.84
2022-08-08T06:47:23.556Z,42.40
2022-08-08T06:50:00.857Z,42.20
2022-08-08T06:52:32.296Z,41.85
2022-08-08T06:55:01.186Z,41.63
2022-08-08T06:57:29.490Z,41.34
2022-08-08T07:00:17.398Z,41.16
2022-08-08T07:02:59.157Z,40.97
2022-08-08T07:05:29.873Z,40.47
2022-08-08T07:08:12.446Z,40.22
2022-08-08T07:10:49.080Z,39.77
2022-08-08T07:13:18.296Z,39.68
2022-08-08T07:16:11.858Z,39.33
2022-08-08T07:18:49.270Z,39.10
2022-08-08T07:21:20.372Z,38.99
2022-08-08T07:24:02.772Z,38.65
2022-08-08T07:26:35.496Z,38.05
2022-08-08T07:29:05.981Z,37.92
2022-08-08T07:31:36.597Z,37.84
2022-08-08T07:34:09.309Z,37.64
2022-08-08T07:36:47.992Z,37.33
2022-08-08T07:39:29.844Z,37.05
2022-08-08T07:42:12.500Z,36.67
2022-08-08T07:44:43.676Z,36.51
2022-08-08T07:47:10.891Z,36.24
2022-08-08T07:49:39.994Z,36.00
2022-08-08T07:52:19.677Z,35.61
2022-08-08T07:54:50.461Z,35.20
2022-08-08T07:57:48.734Z,35.14
2022-08-08T08:00:17.141Z,34.88
2022-08-08T08:02:52.774Z,34.72
2022-08-08T08:05:32.883Z,34.38
2022-08-08T08:08:07.805Z,34.08
2022-08-08T08:10:36.076Z,34.05
2022-08-08T08:13:25.945Z,34.03
2022-08-08T08:16:19.525Z,33.78
2022-08-08T08:18:55.752Z,33.06
2022-08-08T08:21:44.360Z,32.68
2022-08-08T08:24:13.826Z,32.31
2022-08-08T08:26:52.472Z,32.51
2022-08-08T08:29:20.214Z,31.82
2022-08-08T08:31:57.690Z,31.77
2022-08-08T08:34:32.300Z,31.60
2022-08-08T08:37:07.476Z,31.64
2022-08-08T08:39:59.234Z,31.43
2022-08-08T08:42:35.105Z,30.85
2022-08-08T08:45:21.771Z,30.45
2022-08-08T08:47:54.689Z,30.51
2022-08-08T08:50:32.471Z,30.18
2022-08-08T08:53:04.510Z,29.98
2022-08-08T08:55:39.985Z,30.06
2022-08-08T08:58:08.665Z,29.62
2022-08-08T09:01:04.843Z,29.45
2022-08-08T09:03:31.397Z,29.36
2022-08-08T09:06:33.319Z,29.02
2022-08-08T09:09:07.344Z,28.63
2022-08-08T09:11:47.688Z,28.36
2022-08-08T09:14:29.582Z,28.02
2022-08-08T09:16:57.346Z,27.48
2022-08-08T09:22:02.947Z,26.97
2022-08-08T09:22:12.384Z,26.46
2022-08-08T09:24:46.456Z,25.08
2022-08-08T09:27:20.353Z,25.49
2022-08-08T09:30:10.331Z,25.88
2022-08-08T09:33:11.935Z,25.57
2022-08-08T09:35:49.198Z,25.51
2022-08-08T09:38:52.835Z,25.24
2022-08-08T09:41:33.830Z,24.63
2022-08-08T09:44:34.020Z,24.85
2022-08-08T09:47:25.859Z,24.78
2022-08-08T09:49:53.313Z,24.41
2022-08-08T09:52:58.288Z,24.22
2022-08-08T09:55:12.851Z,23.29
2022-08-08T09:57:55.680Z,23.70
2022-08-08T10:00:49.881Z,23.55
2022-08-08T10:03:14.405Z,23.38
2022-08-08T10:05:47.294Z,23.12
2022-08-08T10:08:16.905Z,23.08
2022-08-08T10:10:50.920Z,22.94
2022-08-08T10:13:32.300Z,22.86
2022-08-08T10:16:03.517Z,22.77
2022-08-08T10:18:36.442Z,22.71
2022-08-08T10:21:26.211Z,22.36
2022-08-08T10:24:03.412Z,22.60
2022-08-08T10:26:57.335Z,22.36
2022-08-08T10:29:57.007Z,22.40
2022-08-08T10:32:38.968Z,22.41
2022-08-08T10:36:02.013Z,22.32
2022-08-08T10:38:08.614Z,22.26
2022-08-08T10:40:37.856Z,22.12
2022-08-08T10:43:07.227Z,22.08
2022-08-08T10:45:55.719Z,22.03
2022-08-08T10:48:38.882Z,21.83
2022-08-08T10:51:26.139Z,21.45
2022-08-08T10:53:57.084Z,21.43
2022-08-08T10:56:34.471Z,21.19
2022-08-08T10:59:08.196Z,21.41
2022-08-08T11:01:39.245Z,21.15
2022-08-08T11:04:12.040Z,20.46
2022-08-08T11:06:41.858Z,20.78
2022-08-08T11:09:21.237Z,20.84
2022-08-08T11:12:04.569Z,20.78
2022-08-08T11:14:58.253Z,20.80
2022-08-08T11:18:00.663Z,20.59
2022-08-08T11:20:27.632Z,20.34
2022-08-08T11:23:05.233Z,20.18
2022-08-08T11:25:52.124Z,19.82
2022-08-08T11:28:30.450Z,19.99
2022-08-08T11:31:00.981Z,19.66
2022-08-08T11:33:51.155Z,19.43
2022-08-08T11:36:20.434Z,19.55
2022-08-08T11:38:54.603Z,19.88
2022-08-08T11:41:28.094Z,20.00
2022-08-08T11:44:02.231Z,19.99
2022-08-08T11:46:32.627Z,19.76
2022-08-08T11:49:14.237Z,19.49
2022-08-08T11:51:50.455Z,18.71
2022-08-08T11:54:38.129Z,18.27
2022-08-08T11:57:18.368Z,18.80
2022-08-08T12:00:01.562Z,18.52
2022-08-08T12:02:47.879Z,18.67
2022-08-08T12:05:16.540Z,18.35
2022-08-08T12:07:54.062Z,18.23
2022-08-08T12:10:25.492Z,18.41
2022-08-08T12:13:04.013Z,18.47
2022-08-08T12:15:50.407Z,18.38
2022-08-08T12:18:26.146Z,18.35
2022-08-08T12:20:55.249Z,17.80
2022-08-08T12:23:43.841Z,18.33
2022-08-08T12:26:27.819Z,18.27
2022-08-08T12:29:25.960Z,17.07
2022-08-08T12:32:13.343Z,17.87
2022-08-08T12:34:50.557Z,18.08
2022-08-08T12:37:22.061Z,17.89
2022-08-08T12:40:00.286Z,18.00
2022-08-08T12:42:33.643Z,17.84
2022-08-08T12:45:54.930Z,18.07
2022-08-08T12:48:04.512Z,18.06
2022-08-08T12:50:42.180Z,17.62
2022-08-08T12:53:37.739Z,17.74
2022-08-08T12:56:19.357Z,17.90
2022-08-08T12:58:54.063Z,17.79
2022-08-08T13:01:37.034Z,17.85
2022-08-08T13:04:19.135Z,17.76
2022-08-08T13:07:00.519Z,17.69
2022-08-08T13:09:33.200Z,17.86
2022-08-08T13:12:24.759Z,17.55
2022-08-08T13:14:53.736Z,17.11
2022-08-08T13:18:09.485Z,17.71
2022-08-08T13:20:19.353Z,17.60
2022-08-08T13:22:46.294Z,17.58
2022-08-08T13:25:22.197Z,17.53
2022-08-08T13:27:54.553Z,17.64
2022-08-08T13:30:26.125Z,17.77
2022-08-08T13:32:57.649Z,17.88
2022-08-08T13:35:38.295Z,17.81
2022-08-08T13:38:13.322Z,17.76
2022-08-08T13:40:44.618Z,17.83
2022-08-08T13:43:16.391Z,17.70
2022-08-08T13:45:47.459Z,17.19
2022-08-08T13:48:25.400Z,16.64
2022-08-08T13:51:25.156Z,17.28
2022-08-08T13:53:53.271Z,17.34
2022-08-08T13:56:44.885Z,17.80
2022-08-08T13:59:47.994Z,17.77
2022-08-08T14:02:31.016Z,17.93
2022-08-08T14:05:09.318Z,18.05
2022-08-08T14:07:49.784Z,17.94
2022-08-08T14:10:33.240Z,17.92
2022-08-08T14:13:27.575Z,17.93
2022-08-08T14:16:03.914Z,17.92
2022-08-08T14:18:36.216Z,17.97
2022-08-08T14:21:12.533Z,18.07
2022-08-08T14:24:06.651Z,18.02
2022-08-08T14:26:46.027Z,18.35
2022-08-08T14:29:28.349Z,18.45
2022-08-08T14:32:08.973Z,18.26
2022-08-08T14:34:43.270Z,18.21
2022-08-08T14:37:13.693Z,18.45
2022-08-08T14:40:05.221Z,18.28
2022-08-08T14:42:55.440Z,18.56
2022-08-08T14:45:28.975Z,18.47
2022-08-08T14:48:01.799Z,18.70
2022-08-08T14:50:39.218Z,19.16
2022-08-08T14:53:13.295Z,19.13
2022-08-08T14:55:42.759Z,19.12
2022-08-08T14:58:11.669Z,19.06
2022-08-08T15:00:44.230Z,19.16
2022-08-08T15:03:14.824Z,19.49
2022-08-08T15:05:53.175Z,19.25
2022-08-08T15:08:33.416Z,19.44
2022-08-08T15:11:04.723Z,19.37
2022-08-08T15:13:35.016Z,19.47
2022-08-08T15:16:12.014Z,19.73
2022-08-08T15:18:44.218Z,19.93
2022-08-08T15:21:18.319Z,20.14
2022-08-08T15:23:50.922Z,20.23
2022-08-08T15:26:20.116Z,20.64
2022-08-08T15:28:53.387Z,20.45
2022-08-08T15:31:25.959Z,20.45
2022-08-08T15:34:28.746Z,20.26
2022-08-08T15:36:58.064Z,20.55
2022-08-08T15:39:26.191Z,20.72
2022-08-08T15:42:03.125Z,20.87
2022-08-08T15:44:30.373Z,20.93
2022-08-08T15:46:58.549Z,21.10
2022-08-08T15:49:27.621Z,21.28
2022-08-08T15:51:57.162Z,21.35
2022-08-08T15:54:38.807Z,21.63
2022-08-08T15:57:08.882Z,21.70
2022-08-08T16:00:06.392Z,21.83
2022-08-08T16:02:30.806Z,21.87
2022-08-08T16:05:00.137Z,22.12
2022-08-08T16:07:51.464Z,22.33
2022-08-08T16:13:09.814Z,22.46
2022-08-08T16:13:27.674Z,22.62
2022-08-08T16:15:57.640Z,22.75
2022-08-08T16:18:27.282Z,22.55
2022-08-08T16:21:00.302Z,22.73
2022-08-08T16:23:32.561Z,22.76
2022-08-08T16:26:04.993Z,23.00
2022-08-08T16:28:41.334Z,23.08
2022-08-08T16:31:09.403Z,23.47
2022-08-08T16:33:38.536Z,23.57
2022-08-08T16:36:08.751Z,23.50
2022-08-08T16:38:44.498Z,23.72
2022-08-08T16:41:20.689Z,23.71
2022-08-08T16:43:50.907Z,23.98
2022-08-08T16:46:39.195Z,24.13
2022-08-08T16:49:10.639Z,24.38
2022-08-08T16:55:05.351Z,24.73
2022-08-08T16:55:18.388Z,24.37
2022-08-08T16:57:23.389Z,24.97
2022-08-08T17:00:08.969Z,25.12
2022-08-08T17:02:39.181Z,25.19
2022-08-08T17:05:13.779Z,25.12
2022-08-08T17:07:46.828Z,25.13
2022-08-08T17:10:17.022Z,25.22
2022-08-08T17:12:46.894Z,25.21
2022-08-08T17:15:21.288Z,25.30
2022-08-08T17:18:02.702Z,25.58
2022-08-08T17:20:39.548Z,25.76
2022-08-08T17:23:16.419Z,25.80
2022-08-08T17:25:52.539Z,25.94
2022-08-08T17:28:28.822Z,25.98
2022-08-08T17:31:43.189Z,25.99
2022-08-08T17:34:35.946Z,26.01
2022-08-08T17:36:55.049Z,26.23
2022-08-08T17:40:04.977Z,26.32
2022-08-08T17:42:19.196Z,26.33
2022-08-08T17:44:49.176Z,26.53
2022-08-08T17:47:27.257Z,26.61
2022-08-08T17:50:01.588Z,26.65
2022-08-08T17:52:33.280Z,26.75
2022-08-08T17:55:05.406Z,26.92
2022-08-08T17:57:36.557Z,26.96
2022-08-08T18:00:13.421Z,27.02
2022-08-08T18:02:52.640Z,26.98
2022-08-08T18:05:48.470Z,27.13
2022-08-08T18:08:24.455Z,27.24
2022-08-08T18:11:08.421Z,27.37
2022-08-08T18:13:42.074Z,27.50
2022-08-08T18:16:10.222Z,27.58
2022-08-08T18:18:42.963Z,27.61
2022-08-08T18:21:35.593Z,27.75
2022-08-08T18:24:10.493Z,27.78
2022-08-08T18:26:46.596Z,27.80
2022-08-08T18:29:25.935Z,27.88
2022-08-08T18:32:03.681Z,27.87
2022-08-08T18:34:33.009Z,27.91
2022-08-08T18:37:04.686Z,27.95
2022-08-08T18:39:32.163Z,28.10
2022-08-08T18:41:59.860Z,28.13
2022-08-08T18:44:34.703Z,28.12
2022-08-08T18:47:04.313Z,28.27
2022-08-08T18:49:57.296Z,28.32
2022-08-08T18:52:22.261Z,28.55
2022-08-08T18:55:00.574Z,28.57
2022-08-08T18:57:41.891Z,28.60
2022-08-08T19:00:15.648Z,28.63
2022-08-08T19:02:54.714Z,28.90
2022-08-08T19:05:38.555Z,28.86
2022-08-08T19:08:25.226Z,28.98
2022-08-08T19:10:59.659Z,29.10
2022-08-08T19:13:52.972Z,29.32
2022-08-08T19:16:19.565Z,29.37
2022-08-08T19:18:52.908Z,29.52
2022-08-08T19:21:30.472Z,29.60
2022-08-08T19:23:59.101Z,29.69
2022-08-08T19:26:30.897Z,29.84
2022-08-08T19:29:00.322Z,29.96
2022-08-08T19:31:31.351Z,30.13
2022-08-08T19:34:35.696Z,30.06
2022-08-08T19:36:58.614Z,29.97
2022-08-08T19:39:35.183Z,30.28
2022-08-08T19:42:06.880Z,30.42
2022-08-08T19:44:45.376Z,30.61
2022-08-08T19:47:14.627Z,30.50
2022-08-08T19:49:43.546Z,30.71
2022-08-08T19:52:35.156Z,30.76
2022-08-08T19:55:11.306Z,30.83
2022-08-08T19:57:44.794Z,31.10
2022-08-08T20:00:29.028Z,31.23
2022-08-08T20:03:14.753Z,31.26
2022-08-08T20:06:15.393Z,31.32
2022-08-08T20:08:36.599Z,31.38
2022-08-08T20:11:03.647Z,31.60
2022-08-08T20:14:33.397Z,31.75
2022-08-08T20:16:21.234Z,31.95
2022-08-08T20:18:56.960Z,31.94
2022-08-08T20:21:25.566Z,31.92
2022-08-08T20:23:57.710Z,32.06
2022-08-08T20:26:30.102Z,32.19
2022-08-08T20:29:02.576Z,32.49
2022-08-08T20:32:02.677Z,32.64
2022-08-08T20:34:28.794Z,32.85
2022-08-08T20:37:03.176Z,32.97
2022-08-08T20:39:39.102Z,33.05
2022-08-08T20:42:28.657Z,33.16
2022-08-08T20:44:56.436Z,33.27
2022-08-08T20:47:24.022Z,33.16
2022-08-08T20:49:55.837Z,33.24
2022-08-08T20:52:25.902Z,33.30
2022-08-08T20:54:52.914Z,33.26
2022-08-08T20:57:20.964Z,33.10
2022-08-08T20:59:48.886Z,33.22
2022-08-08T21:02:25.357Z,33.28
2022-08-08T21:05:00.566Z,33.45
2022-08-08T21:07:47.101Z,33.65
2022-08-08T21:10:16.773Z,33.78
2022-08-08T21:12:46.319Z,33.94
2022-08-08T21:16:05.233Z,34.00
2022-08-08T21:18:08.025Z,34.26
2022-08-08T21:20:35.069Z,34.05
2022-08-08T21:23:09.008Z,34.22
2022-08-08T21:25:36.825Z,34.26
2022-08-08T21:28:15.581Z,34.55
2022-08-08T21:30:49.762Z,34.54
2022-08-08T21:33:21.213Z,34.60
2022-08-08T21:36:18.455Z,34.49
2022-08-08T21:38:35.398Z,34.68
2022-08-08T21:41:02.272Z,34.74
2022-08-08T21:43:33.607Z,34.87
2022-08-08T21:48:07.243Z,35.01
2022-08-08T21:48:54.155Z,35.15
2022-08-08T21:54:17.893Z,35.12
2022-08-08T21:54:33.836Z,35.38
2022-08-08T21:56:59.411Z,35.49
2022-08-08T21:59:43.780Z,35.55
2022-08-08T22:02:16.025Z,35.60
2022-08-08T22:04:46.325Z,35.63
2022-08-08T22:07:13.473Z,35.89
2022-08-08T22:09:41.012Z,35.95
2022-08-08T22:12:16.698Z,36.14
2022-08-08T22:14:49.872Z,36.33
2022-08-08T22:17:19.151Z,36.47
2022-08-08T22:20:11.984Z,36.45
2022-08-08T22:22:37.892Z,36.31
2022-08-08T22:25:12.198Z,36.63
2022-08-08T22:28:02.829Z,36.67
2022-08-08T22:30:40.963Z,36.67
2022-08-08T22:34:10.434Z,36.81
2022-08-08T22:36:04.510Z,36.83
2022-08-08T22:38:48.677Z,37.01
2022-08-08T22:41:21.525Z,36.84
2022-08-08T22:44:01.903Z,36.95
2022-08-08T22:46:33.149Z,37.39
2022-08-08T22:49:00.750Z,37.38
2022-08-08T22:51:28.967Z,37.42
2022-08-08T22:54:32.762Z,37.59
2022-08-08T22:56:47.486Z,37.62
2022-08-08T22:59:18.559Z,37.65
2022-08-08T23:02:02.291Z,37.71
2022-08-08T23:04:32.314Z,37.84
2022-08-08T23:07:03.021Z,37.95
2022-08-08T23:09:39.485Z,37.95
2022-08-08T23:12:39.813Z,38.21
2022-08-08T23:15:10.918Z,38.33
2022-08-08T23:17:58.425Z,38.40
2022-08-08T23:20:27.243Z,38.53
2022-08-08T23:22:55.529Z,38.73
2022-08-08T23:25:23.704Z,38.66
2022-08-08T23:27:54.275Z,38.88
2022-08-08T23:30:23.694Z,39.07
2022-08-08T23:32:50.884Z,39.17
2022-08-08T23:35:18.660Z,39.35
2022-08-08T23:38:01.784Z,39.52
2022-08-08T23:40:31.484Z,39.71
2022-08-08T23:42:58.933Z,39.97
2022-08-08T23:48:59.928Z,39.97
2022-08-08T23:49:02.871Z,40.03
2022-08-08T23:51:12.924Z,40.24
2022-08-08T23:54:05.589Z,40.33
2022-08-08T23:56:40.796Z,40.43
2022-08-08T23:59:17.265Z,40.49
